Time;durP1;ratioP1;P1;durP2;ratioP2;P2;SDS_P1;SDS_P2;PMS_P1;PMS_P2;Temp;Humidity;BMP_temperature;BMP_pressure;BME280_temperature;BME280_humidity;BME280_pressure;Samples;Min_cycle;Max_cycle;Signal;HPM_P1;HPM_P2
2021/05/17 00:02:25;;;;;;;5.68;2.40;;;15.70;99.90;;;;;;4878276;29;20128;-75
2021/05/17 00:04:50;;;;;;;13.00;2.70;;;15.70;99.90;;;;;;4877286;29;20033;-74
2021/05/17 00:07:16;;;;;;;13.98;3.30;;;15.70;99.90;;;;;;4866369;29;20089;-74
2021/05/17 00:09:43;;;;;;;9.95;3.05;;;15.60;99.90;;;;;;4873523;29;20040;-74
2021/05/17 00:12:11;;;;;;;10.95;2.70;;;15.60;99.90;;;;;;4876286;29;20056;-73
2021/05/17 00:14:38;;;;;;;6.50;2.72;;;15.60;99.90;;;;;;4877880;29;20041;-75
2021/05/17 00:17:05;;;;;;;10.73;3.05;;;15.60;99.90;;;;;;4878370;29;20470;-75
2021/05/17 00:19:31;;;;;;;7.07;2.75;;;15.60;99.90;;;;;;4877488;29;20482;-74
2021/05/17 00:21:58;;;;;;;10.43;2.35;;;15.50;99.90;;;;;;4877445;29;20048;-74
2021/05/17 00:24:23;;;;;;;6.75;2.45;;;15.60;99.90;;;;;;4877726;29;20041;-74
2021/05/17 00:26:49;;;;;;;5.13;2.10;;;15.60;99.90;;;;;;4868784;29;20093;-74
2021/05/17 00:29:16;;;;;;;7.50;2.55;;;15.60;99.90;;;;;;4851032;29;20491;-74
2021/05/17 00:31:43;;;;;;;8.25;2.53;;;15.60;99.90;;;;;;4877041;29;20557;-75
2021/05/17 00:34:09;;;;;;;7.97;2.35;;;15.60;99.90;;;;;;4877872;29;20157;-75
2021/05/17 00:36:36;;;;;;;11.93;2.72;;;15.50;99.90;;;;;;4870688;29;20037;-72
2021/05/17 00:39:05;;;;;;;10.25;2.28;;;15.60;99.90;;;;;;4876012;29;20032;-72
2021/05/17 00:41:31;;;;;;;16.00;2.88;;;15.60;99.90;;;;;;4877480;29;20063;-73
2021/05/17 00:43:57;;;;;;;11.43;2.05;;;15.70;99.90;;;;;;4880027;29;20033;-73
2021/05/17 00:46:26;;;;;;;12.93;2.97;;;15.70;99.90;;;;;;4879733;29;20049;-72
2021/05/17 00:48:53;;;;;;;16.60;2.70;;;15.70;99.90;;;;;;4881035;29;20117;-72
2021/05/17 00:51:19;;;;;;;8.93;2.85;;;15.70;99.90;;;;;;4881423;29;20081;-73
2021/05/17 00:53:45;;;;;;;11.02;2.92;;;15.80;99.90;;;;;;4858897;29;20037;-75
2021/05/17 00:56:12;;;;;;;12.25;2.53;;;15.80;99.90;;;;;;4881215;29;20041;-74
2021/05/17 00:58:38;;;;;;;14.98;3.95;;;15.90;99.90;;;;;;4881065;29;20368;-74
2021/05/17 01:01:05;;;;;;;19.05;3.38;;;15.90;99.90;;;;;;4880969;29;20037;-74
2021/05/17 01:03:33;;;;;;;10.38;2.95;;;16.00;99.90;;;;;;4880727;29;20093;-74
2021/05/17 01:06:03;;;;;;;20.23;3.50;;;16.00;99.90;;;;;;4881012;29;20029;-73
2021/05/17 01:08:49;;;;;;;17.90;4.60;;;16.00;99.90;;;;;;4876437;29;20444;-73
2021/05/17 01:11:17;;;;;;;8.27;2.75;;;16.00;99.90;;;;;;4870399;29;20116;-72
2021/05/17 01:13:44;;;;;;;16.30;3.20;;;16.00;99.90;;;;;;4872150;29;20125;-73
2021/05/17 01:16:11;;;;;;;10.35;2.95;;;16.00;99.90;;;;;;4880808;29;20033;-74
2021/05/17 01:18:38;;;;;;;17.33;3.28;;;16.00;99.90;;;;;;4881251;29;20040;-75
2021/05/17 01:21:05;;;;;;;11.00;2.85;;;16.00;99.90;;;;;;4880813;29;20037;-73
2021/05/17 01:23:32;;;;;;;11.00;3.67;;;15.90;99.90;;;;;;4880648;29;20089;-72
2021/05/17 01:26:00;;;;;;;17.27;3.42;;;15.90;99.90;;;;;;4880828;29;20041;-76
2021/05/17 01:28:29;;;;;;;14.05;3.03;;;15.80;99.90;;;;;;4880751;29;20885;-75
2021/05/17 01:31:05;;;;;;;14.75;3.30;;;15.80;99.90;;;;;;4874875;29;20037;-74
2021/05/17 01:33:42;;;;;;;9.65;3.22;;;15.80;99.90;;;;;;4878195;29;20390;-73
2021/05/17 01:36:10;;;;;;;15.00;3.78;;;15.90;99.90;;;;;;4866923;29;20072;-74
2021/05/17 01:38:37;;;;;;;15.07;2.95;;;15.90;99.90;;;;;;4880287;29;20104;-75
2021/05/17 01:41:09;;;;;;;9.90;2.38;;;15.80;99.90;;;;;;4879898;29;20033;-75
2021/05/17 01:43:48;;;;;;;17.88;3.15;;;15.90;99.90;;;;;;4880417;29;20037;-75
2021/05/17 01:46:36;;;;;;;12.55;3.78;;;15.80;99.90;;;;;;4880505;29;20036;-74
2021/05/17 01:49:02;;;;;;;13.25;3.50;;;15.80;99.90;;;;;;4880620;29;20036;-74
2021/05/17 01:51:28;;;;;;;9.30;3.28;;;15.80;99.90;;;;;;4877692;29;20512;-74
2021/05/17 01:53:54;;;;;;;16.67;3.08;;;15.80;99.90;;;;;;4861974;29;20056;-74
2021/05/17 01:56:20;;;;;;;21.52;4.15;;;15.80;99.90;;;;;;4866452;29;20045;-73
2021/05/17 01:58:46;;;;;;;9.77;3.20;;;15.80;99.90;;;;;;4879398;29;20449;-75
2021/05/17 02:01:17;;;;;;;12.65;3.20;;;15.80;99.90;;;;;;4879783;29;20048;-74
2021/05/17 02:03:48;;;;;;;16.33;3.78;;;15.80;99.90;;;;;;4880003;29;20029;-74
2021/05/17 02:06:16;;;;;;;12.45;3.83;;;15.80;99.90;;;;;;4880252;29;20504;-74
2021/05/17 02:08:45;;;;;;;8.23;3.03;;;15.70;99.90;;;;;;4880224;29;20021;-75
2021/05/17 02:11:13;;;;;;;12.65;3.30;;;15.70;99.90;;;;;;4878812;29;20048;-74
2021/05/17 02:13:40;;;;;;;11.07;3.22;;;15.70;99.90;;;;;;4877023;29;20116;-75
2021/05/17 02:16:08;;;;;;;14.00;3.33;;;15.70;99.90;;;;;;4874713;29;20513;-75
2021/05/17 02:18:38;;;;;;;13.80;3.53;;;15.70;99.90;;;;;;4874377;29;20033;-75
2021/05/17 02:21:04;;;;;;;12.40;3.13;;;15.80;99.90;;;;;;4879832;29;20399;-74
2021/05/17 02:23:30;;;;;;;11.73;3.53;;;15.80;99.90;;;;;;4879845;29;20033;-74
2021/05/17 02:25:57;;;;;;;18.27;3.40;;;15.80;99.90;;;;;;4879449;29;20101;-75
2021/05/17 02:28:23;;;;;;;17.33;3.63;;;15.80;99.90;;;;;;4879582;29;20470;-74
2021/05/17 02:30:49;;;;;;;12.43;3.03;;;15.80;99.90;;;;;;4862309;29;20088;-75
2021/05/17 02:33:15;;;;;;;19.70;3.75;;;15.80;99.90;;;;;;4879470;29;20033;-75
2021/05/17 02:35:41;;;;;;;23.23;5.25;;;15.80;99.90;;;;;;4879687;29;20041;-74
2021/05/17 02:38:09;;;;;;;16.05;4.78;;;15.90;99.90;;;;;;4879503;29;20025;-74
2021/05/17 02:40:34;;;;;;;20.48;4.60;;;15.90;99.90;;;;;;4879162;29;20124;-74
2021/05/17 02:43:03;;;;;;;12.80;3.95;;;15.80;99.90;;;;;;4878992;29;20511;-75
2021/05/17 02:45:29;;;;;;;10.88;3.88;;;15.80;99.90;;;;;;4879413;29;20104;-75
2021/05/17 02:47:59;;;;;;;20.30;4.53;;;15.70;99.90;;;;;;4879329;29;20037;-74
2021/05/17 02:50:35;;;;;;;8.68;3.30;;;15.70;99.90;;;;;;4879296;29;20033;-75
2021/05/17 02:53:21;;;;;;;11.77;3.85;;;15.70;99.90;;;;;;4878972;29;20180;-73
2021/05/17 02:55:50;;;;;;;15.43;3.67;;;15.70;99.90;;;;;;4878769;29;20465;-74
2021/05/17 02:58:18;;;;;;;15.52;3.92;;;15.70;99.90;;;;;;4878738;29;20471;-74
2021/05/17 03:00:51;;;;;;;13.93;3.80;;;15.70;99.90;;;;;;4877606;29;20045;-75
2021/05/17 03:03:17;;;;;;;10.23;3.15;;;15.80;99.90;;;;;;4877718;29;20036;-75
2021/05/17 03:05:44;;;;;;;15.70;3.35;;;15.80;99.90;;;;;;4878528;29;20037;-74
2021/05/17 03:08:12;;;;;;;19.75;3.75;;;15.80;99.90;;;;;;4878558;29;20128;-75
2021/05/17 03:10:43;;;;;;;14.48;3.35;;;15.80;99.90;;;;;;4878692;29;20035;-75
2021/05/17 03:13:20;;;;;;;18.75;3.30;;;15.70;99.90;;;;;;4878806;29;20094;-74
2021/05/17 03:15:46;;;;;;;15.98;3.17;;;15.70;99.90;;;;;;4878443;29;20104;-75
2021/05/17 03:18:12;;;;;;;16.17;3.58;;;15.70;99.90;;;;;;4878650;29;20073;-74
2021/05/17 03:20:39;;;;;;;19.77;3.67;;;15.70;99.90;;;;;;4878883;29;20033;-74
2021/05/17 03:23:12;;;;;;;18.50;3.40;;;15.70;99.90;;;;;;4862353;29;20507;-74
2021/05/17 03:25:41;;;;;;;10.02;3.25;;;15.70;99.90;;;;;;4878137;29;20037;-74
2021/05/17 03:28:07;;;;;;;19.27;3.47;;;15.70;99.90;;;;;;4878363;29;20084;-74
2021/05/17 03:30:32;;;;;;;14.52;4.03;;;15.70;99.90;;;;;;4878681;29;20052;-75
2021/05/17 03:32:58;;;;;;;11.93;3.75;;;15.70;99.90;;;;;;4878593;29;20497;-75
2021/05/17 03:35:24;;;;;;;16.95;4.25;;;15.70;99.90;;;;;;4878746;29;20040;-74
2021/05/17 03:37:50;;;;;;;8.30;3.45;;;15.70;99.90;;;;;;4878527;29;20044;-74
2021/05/17 03:40:17;;;;;;;25.38;4.80;;;15.70;99.90;;;;;;4878646;29;20044;-75
2021/05/17 03:42:43;;;;;;;19.80;3.53;;;15.80;99.90;;;;;;4878463;29;20037;-74
2021/05/17 03:45:11;;;;;;;19.65;4.10;;;15.80;99.90;;;;;;4878186;29;20509;-73
2021/05/17 03:47:37;;;;;;;10.27;2.65;;;15.80;99.90;;;;;;4878312;29;20037;-74
2021/05/17 03:50:05;;;;;;;14.52;3.35;;;15.80;99.90;;;;;;4877923;29;20039;-75
2021/05/17 03:52:31;;;;;;;14.68;3.35;;;15.80;99.90;;;;;;4878359;29;20181;-74
2021/05/17 03:54:57;;;;;;;17.42;3.90;;;15.80;99.90;;;;;;4878227;29;20104;-75
2021/05/17 03:57:23;;;;;;;15.23;3.45;;;15.80;99.90;;;;;;4878632;29;20397;-74
2021/05/17 03:59:48;;;;;;;14.23;3.00;;;15.80;99.90;;;;;;4877848;29;20052;-74
2021/05/17 04:02:20;;;;;;;27.80;4.15;;;15.80;99.90;;;;;;4877868;29;20041;-74
2021/05/17 04:13:19;;;;;;;25.25;4.22;;;15.90;99.90;;;;;;4868712;29;20111;-74
2021/05/17 04:15:46;;;;;;;21.13;4.28;;;15.80;99.90;;;;;;4877820;29;20025;-72
2021/05/17 04:18:12;;;;;;;23.65;4.50;;;15.80;99.90;;;;;;4879796;29;20041;-74
2021/05/17 04:20:38;;;;;;;19.58;2.90;;;15.80;99.90;;;;;;4881663;29;20037;-73
2021/05/17 04:23:04;;;;;;;18.15;5.57;;;15.90;99.90;;;;;;4881652;29;20048;-74
2021/05/17 04:25:30;;;;;;;15.65;3.03;;;15.90;99.90;;;;;;4881833;29;20030;-74
2021/05/17 04:27:56;;;;;;;15.07;3.30;;;15.90;99.90;;;;;;4889173;29;20055;-74
2021/05/17 04:30:22;;;;;;;26.63;4.25;;;16.00;99.90;;;;;;4887746;29;20045;-73
2021/05/17 04:32:48;;;;;;;24.35;3.85;;;16.00;99.90;;;;;;4881564;29;20435;-74
2021/05/17 04:35:14;;;;;;;17.92;3.00;;;16.00;99.90;;;;;;4864417;29;20037;-74
2021/05/17 04:37:40;;;;;;;24.92;3.90;;;15.90;99.90;;;;;;4881285;29;20044;-74
2021/05/17 04:40:07;;;;;;;20.20;3.60;;;15.90;99.90;;;;;;4880723;29;20082;-72
2021/05/17 04:42:34;;;;;;;19.27;3.40;;;15.80;99.90;;;;;;4875794;29;20398;-74
2021/05/17 04:45:00;;;;;;;18.90;3.15;;;15.90;99.90;;;;;;4879596;29;20147;-73
2021/05/17 04:47:26;;;;;;;19.13;4.32;;;16.00;99.90;;;;;;4877226;29;20107;-74
2021/05/17 04:49:51;;;;;;;23.30;3.83;;;16.00;99.90;;;;;;4868152;29;20030;-74
2021/05/17 04:52:17;;;;;;;27.15;5.22;;;16.00;99.90;;;;;;4881326;29;20030;-73
2021/05/17 04:54:43;;;;;;;20.20;3.53;;;16.00;99.90;;;;;;4881332;29;20040;-73
2021/05/17 04:57:09;;;;;;;25.23;4.50;;;16.00;99.90;;;;;;4881586;29;20387;-74
2021/05/17 04:59:35;;;;;;;21.27;4.32;;;16.00;99.90;;;;;;4877128;29;20038;-74
2021/05/17 05:02:00;;;;;;;34.33;4.78;;;16.00;99.90;;;;;;4879254;29;20045;-74
2021/05/17 05:04:26;;;;;;;29.50;4.57;;;15.90;99.90;;;;;;4880798;29;20471;-74
2021/05/17 05:06:52;;;;;;;34.58;5.15;;;15.80;99.90;;;;;;4880509;29;20112;-77
2021/05/17 05:09:18;;;;;;;25.10;4.28;;;15.80;99.90;;;;;;4864059;29;20467;-76
2021/05/17 05:11:43;;;;;;;17.15;4.05;;;15.70;99.90;;;;;;4880637;29;20044;-76
2021/05/17 05:14:09;;;;;;;15.52;3.42;;;15.80;99.90;;;;;;4881015;29;20104;-77
2021/05/17 05:16:35;;;;;;;23.88;3.95;;;15.80;99.90;;;;;;4880989;29;20048;-76
2021/05/17 05:19:00;;;;;;;23.45;3.38;;;15.80;99.90;;;;;;4879265;29;20108;-76
2021/05/17 05:21:26;;;;;;;23.58;3.25;;;15.80;99.90;;;;;;4874574;29;20049;-74
2021/05/17 05:23:52;;;;;;;18.90;3.90;;;15.90;99.90;;;;;;4874232;29;20469;-74
2021/05/17 05:26:41;;;;;;;16.08;2.65;;;15.90;99.90;;;;;;4871516;29;20096;-73
2021/05/17 05:31:57;;;;;;;17.77;4.00;;;15.90;99.90;;;;;;4879186;29;20182;-75
2021/05/17 05:34:25;;;;;;;22.73;3.58;;;15.90;99.90;;;;;;4880502;29;20029;-74
2021/05/17 05:36:51;;;;;;;21.55;3.83;;;15.90;99.90;;;;;;4881521;29;20478;-75
2021/05/17 05:39:17;;;;;;;24.40;3.70;;;15.90;99.90;;;;;;4880583;29;20052;-73
2021/05/17 05:41:43;;;;;;;28.40;4.40;;;15.90;99.90;;;;;;4879967;29;20053;-76
2021/05/17 05:44:08;;;;;;;18.50;3.53;;;15.90;99.90;;;;;;4879792;29;20598;-72
2021/05/17 05:46:34;;;;;;;16.83;3.55;;;15.90;99.90;;;;;;4880084;29;20060;-72
2021/05/17 05:49:00;;;;;;;26.80;4.32;;;16.00;99.90;;;;;;4872728;29;20034;-78
2021/05/17 05:51:29;;;;;;;21.52;3.88;;;16.10;99.90;;;;;;4874970;29;20406;-78
2021/05/17 05:53:58;;;;;;;14.70;3.85;;;16.20;99.90;;;;;;4871080;29;20037;-73
2021/05/17 05:56:25;;;;;;;19.33;3.60;;;16.40;99.90;;;;;;4878972;29;20490;-76
2021/05/17 05:58:52;;;;;;;24.00;3.80;;;16.40;99.90;;;;;;4880426;29;20410;-76
2021/05/17 06:01:18;;;;;;;18.00;3.50;;;16.50;99.90;;;;;;4863133;29;20101;-73
2021/05/17 06:03:44;;;;;;;25.75;4.45;;;16.60;99.90;;;;;;4880040;29;20048;-77
2021/05/17 06:06:11;;;;;;;15.57;4.22;;;16.70;99.90;;;;;;4880318;29;20029;-73
2021/05/17 06:08:40;;;;;;;13.73;4.18;;;16.70;99.90;;;;;;4880314;29;20084;-74
2021/05/17 06:11:06;;;;;;;27.67;4.57;;;16.70;99.90;;;;;;4880562;29;20029;-73
2021/05/17 06:13:34;;;;;;;20.33;4.47;;;16.70;99.90;;;;;;4879752;29;20509;-75
2021/05/17 06:16:00;;;;;;;20.20;4.25;;;16.60;99.90;;;;;;4880044;29;20102;-75
2021/05/17 06:18:26;;;;;;;27.42;5.72;;;16.40;99.90;;;;;;4880277;29;20041;-74
2021/05/17 06:20:54;;;;;;;26.45;4.82;;;16.40;99.90;;;;;;4879838;29;20045;-74
2021/05/17 06:23:20;;;;;;;27.88;4.22;;;16.30;99.90;;;;;;4879756;29;20124;-75
2021/05/17 06:25:46;;;;;;;28.52;4.95;;;16.30;99.90;;;;;;4879652;29;20036;-74
2021/05/17 06:28:12;;;;;;;30.90;4.40;;;16.40;99.90;;;;;;4879597;29;20044;-75
2021/05/17 06:30:47;;;;;;;28.65;5.68;;;16.50;99.90;;;;;;4879716;29;20033;-75
2021/05/17 06:33:15;;;;;;;19.98;4.28;;;16.60;99.90;;;;;;4879449;29;20033;-74
2021/05/17 06:36:02;;;;;;;35.88;4.93;;;16.80;99.90;;;;;;4880805;29;20040;-75
2021/05/17 06:38:29;;;;;;;17.23;3.70;;;17.10;99.90;;;;;;4883688;29;20084;-74
2021/05/17 06:40:56;;;;;;;20.67;2.72;;;17.30;99.90;;;;;;4878715;29;20048;-73
2021/05/17 06:43:23;;;;;;;17.52;3.35;;;17.30;99.90;;;;;;4879507;29;20074;-75
2021/05/17 06:45:49;;;;;;;11.32;1.27;;;17.20;99.90;;;;;;4879558;29;20444;-72
2021/05/17 06:48:15;;;;;;;3.72;0.75;;;16.60;99.90;;;;;;4879556;29;20040;-73
2021/05/17 06:50:42;;;;;;;6.65;0.60;;;15.80;99.90;;;;;;4879781;29;20089;-73
2021/05/17 06:53:08;;;;;;;3.95;0.93;;;14.80;99.90;;;;;;4879211;29;20037;-72
2021/05/17 06:58:28;;;;;;;9.52;0.82;;;15.40;99.90;;;;;;4879051;29;20128;-75
2021/05/17 07:01:00;;;;;;;10.75;0.73;;;16.30;99.90;;;;;;4878931;29;20395;-75
2021/05/17 07:03:26;;;;;;;9.07;0.75;;;16.30;99.90;;;;;;4879216;29;20035;-74
2021/05/17 07:05:55;;;;;;;7.07;0.70;;;15.60;99.90;;;;;;4879179;29;20041;-73
2021/05/17 07:13:50;;;;;;;8.40;0.60;;;15.60;99.90;;;;;;4878849;29;20088;-73
2021/05/17 07:16:16;;;;;;;10.07;0.50;;;15.90;99.90;;;;;;4879322;29;20033;-72
2021/05/17 07:18:42;;;;;;;1.00;0.40;;;16.00;99.90;;;;;;4878524;29;20037;-77
2021/05/17 07:23:41;;;;;;;13.82;0.80;;;15.80;99.90;;;;;;4879308;29;20033;-73
2021/05/17 07:26:16;;;;;;;10.18;0.60;;;15.40;99.90;;;;;;4874766;29;20035;-73
2021/05/17 07:28:43;;;;;;;8.75;0.70;;;15.00;99.90;;;;;;4869195;29;20025;-74
2021/05/17 07:31:10;;;;;;;3.38;0.50;;;14.90;99.90;;;;;;4868851;29;20116;-76
2021/05/17 07:33:38;;;;;;;1.33;0.40;;;14.90;99.90;;;;;;4871983;29;20037;-75
2021/05/17 07:36:04;;;;;;;0.90;0.50;;;14.80;99.90;;;;;;4874653;29;20474;-73
2021/05/17 07:38:32;;;;;;;5.07;0.60;;;14.70;99.90;;;;;;4870114;29;20033;-74
2021/05/17 07:40:59;;;;;;;4.00;0.40;;;14.60;99.90;;;;;;4878019;29;20048;-71
2021/05/17 07:43:25;;;;;;;1.33;0.40;;;14.60;99.90;;;;;;4878398;29;20490;-74
2021/05/17 07:45:52;;;;;;;0.38;0.38;;;14.60;99.90;;;;;;4878350;29;20025;-72
2021/05/17 07:48:19;;;;;;;3.92;0.60;;;14.60;99.90;;;;;;4869211;29;20053;-72
2021/05/17 07:50:45;;;;;;;0.88;0.47;;;14.70;99.90;;;;;;4868616;29;20040;-74
2021/05/17 07:53:12;;;;;;;0.40;0.40;;;14.70;99.90;;;;;;4877754;29;20067;-73
2021/05/17 07:55:38;;;;;;;3.72;0.65;;;14.80;99.90;;;;;;4878269;29;20037;-74
2021/05/17 07:58:04;;;;;;;1.15;0.88;;;14.90;99.90;;;;;;4878397;29;20486;-73
2021/05/17 08:00:30;;;;;;;10.95;0.63;;;14.80;99.90;;;;;;4878028;29;20521;-71
2021/05/17 08:02:56;;;;;;;0.40;0.40;;;14.80;99.90;;;;;;4878209;29;20041;-76
2021/05/17 08:05:21;;;;;;;0.52;0.50;;;14.80;99.90;;;;;;4878030;29;20033;-76
2021/05/17 08:07:47;;;;;;;0.52;0.52;;;14.70;99.90;;;;;;4877484;29;20497;-75
2021/05/17 08:10:13;;;;;;;5.70;0.68;;;14.60;99.90;;;;;;4877993;29;20031;-74
2021/05/17 08:12:39;;;;;;;0.90;0.60;;;14.50;99.90;;;;;;4878095;29;20040;-74
2021/05/17 08:15:07;;;;;;;7.88;0.60;;;14.40;99.90;;;;;;4869561;29;20033;-72
2021/05/17 08:17:33;;;;;;;1.50;0.50;;;14.40;99.90;;;;;;4875075;29;20037;-73
2021/05/17 08:20:00;;;;;;;1.98;0.50;;;14.40;99.90;;;;;;4876598;29;20124;-75
2021/05/17 08:22:26;;;;;;;1.70;0.40;;;14.40;99.90;;;;;;4860432;29;20391;-73
2021/05/17 08:24:54;;;;;;;2.70;0.50;;;14.50;99.90;;;;;;4877921;29;20039;-75
2021/05/17 08:27:20;;;;;;;0.40;0.40;;;14.40;99.90;;;;;;4877835;29;20076;-74
2021/05/17 08:29:45;;;;;;;4.30;0.75;;;14.40;99.90;;;;;;4877863;29;20483;-72
2021/05/17 08:32:12;;;;;;;2.15;0.95;;;14.50;99.90;;;;;;4861053;29;20033;-73
2021/05/17 08:34:37;;;;;;;5.00;0.95;;;14.50;99.90;;;;;;4877940;29;20041;-72
2021/05/17 08:37:04;;;;;;;12.60;0.70;;;14.60;99.90;;;;;;4877874;29;20029;-74
2021/05/17 08:39:30;;;;;;;0.68;0.40;;;14.60;99.90;;;;;;4877930;29;20033;-74
2021/05/17 08:41:57;;;;;;;0.50;0.50;;;14.70;99.90;;;;;;4877654;29;20518;-73
2021/05/17 08:44:25;;;;;;;1.77;0.70;;;14.70;99.90;;;;;;4861362;29;20044;-74
2021/05/17 08:46:50;;;;;;;4.53;1.20;;;14.80;99.90;;;;;;4877110;29;20029;-72
2021/05/17 08:49:17;;;;;;;2.53;1.13;;;14.80;99.90;;;;;;4877364;29;20048;-79
2021/05/17 08:51:44;;;;;;;0.70;0.70;;;14.80;99.90;;;;;;4875516;29;20034;-78
2021/05/17 08:54:10;;;;;;;1.05;0.88;;;14.80;99.90;;;;;;4877484;29;20036;-79
2021/05/17 08:56:43;;;;;;;1.65;0.80;;;14.80;99.90;;;;;;4876977;29;20410;-77
2021/05/17 08:59:10;;;;;;;3.65;1.10;;;14.80;99.90;;;;;;4875959;29;20036;-79
2021/05/17 09:01:36;;;;;;;1.00;0.60;;;14.80;99.90;;;;;;4877842;29;20517;-76
2021/05/17 09:04:08;;;;;;;8.30;0.98;;;14.80;99.90;;;;;;4863557;29;20037;-73
2021/05/17 09:06:51;;;;;;;0.77;0.60;;;14.90;99.90;;;;;;4875244;29;20161;-82
2021/05/17 09:09:26;;;;;;;2.85;0.68;;;14.90;99.90;;;;;;4869472;29;20040;-73
2021/05/17 09:12:00;;;;;;;2.55;0.80;;;14.90;99.90;;;;;;4867289;29;20510;-77
2021/05/17 09:14:27;;;;;;;1.23;0.70;;;14.90;99.90;;;;;;4880711;29;20025;-74
2021/05/17 09:17:12;;;;;;;0.80;0.80;;;14.80;99.90;;;;;;4876195;29;20037;-72
2021/05/17 09:19:41;;;;;;;7.03;0.70;;;14.90;99.90;;;;;;4873720;29;20093;-72
2021/05/17 09:22:10;;;;;;;4.60;0.60;;;14.90;99.90;;;;;;4877422;29;20570;-73
2021/05/17 09:24:44;;;;;;;0.45;0.45;;;14.90;99.90;;;;;;4878309;29;20033;-74
2021/05/17 09:27:34;;;;;;;1.45;0.52;;;14.90;99.90;;;;;;4880177;29;20037;-73
2021/05/17 09:30:04;;;;;;;1.30;0.57;;;14.90;99.90;;;;;;4879592;29;20115;-73
2021/05/17 09:32:32;;;;;;;2.35;0.52;;;15.00;99.90;;;;;;4881895;29;20128;-75
2021/05/17 09:35:15;;;;;;;0.50;0.50;;;15.00;99.90;;;;;;4880607;29;20025;-80
2021/05/17 09:38:05;;;;;;;2.72;0.50;;;15.20;99.90;;;;;;4880121;29;20061;-75
2021/05/17 09:40:32;;;;;;;0.82;0.60;;;15.40;99.90;;;;;;4880438;29;20060;-76
2021/05/17 09:43:19;;;;;;;3.75;0.47;;;15.60;99.90;;;;;;4880105;29;20502;-79
2021/05/17 09:45:47;;;;;;;0.60;0.40;;;15.80;99.90;;;;;;4880105;29;20041;-72
2021/05/17 09:48:15;;;;;;;1.20;0.60;;;15.70;99.90;;;;;;4879781;29;20085;-74
2021/05/17 09:51:12;;;;;;;1.00;0.70;;;15.70;99.90;;;;;;4878898;29;20084;-80
2021/05/17 09:53:42;;;;;;;0.75;0.30;;;16.00;99.90;;;;;;4879721;29;20040;-75
2021/05/17 09:56:12;;;;;;;0.85;0.47;;;16.50;99.90;;;;;;4880338;29;20035;-76
2021/05/17 09:58:43;;;;;;;1.38;0.43;;;16.70;99.90;;;;;;4880402;29;20556;-73
2021/05/17 10:01:29;;;;;;;0.40;0.40;;;16.80;99.90;;;;;;4874747;29;20040;-80
2021/05/17 10:04:03;;;;;;;0.28;0.28;;;16.80;99.90;;;;;;4880170;29;20033;-76
2021/05/17 10:06:29;;;;;;;0.85;0.40;;;16.80;99.90;;;;;;4875227;29;20038;-80
2021/05/17 10:08:55;;;;;;;0.30;0.30;;;16.80;99.90;;;;;;4880055;29;20032;-76
2021/05/17 10:11:23;;;;;;;0.43;0.43;;;16.80;99.90;;;;;;4873618;29;20047;-71
2021/05/17 10:13:50;;;;;;;0.45;0.43;;;16.90;99.90;;;;;;4877299;29;20036;-78
2021/05/17 10:16:17;;;;;;;0.55;0.43;;;16.90;99.90;;;;;;4876385;29;20490;-77
2021/05/17 10:18:44;;;;;;;4.38;0.40;;;16.90;99.90;;;;;;4872070;29;20033;-76
2021/05/17 10:21:16;;;;;;;0.60;0.43;;;16.80;99.90;;;;;;4879552;29;20075;-78
2021/05/17 10:23:42;;;;;;;;;;;16.90;99.90;;;;;;4880444;29;20048;-76
2021/05/17 10:26:25;;;;;;;1.02;0.45;;;17.10;99.90;;;;;;4879065;29;19954;-78
2021/05/17 10:28:57;;;;;;;2.28;0.40;;;17.20;99.90;;;;;;4878885;29;20041;-76
2021/05/17 10:31:24;;;;;;;0.45;0.30;;;17.30;99.90;;;;;;4877386;29;20068;-79
2021/05/17 10:34:01;;;;;;;1.85;0.40;;;17.20;99.90;;;;;;4879664;29;20043;-76
2021/05/17 10:37:16;;;;;;;3.42;0.50;;;17.40;99.90;;;;;;4879389;29;20108;-80
2021/05/17 10:39:45;;;;;;;0.55;0.40;;;17.50;99.90;;;;;;4840269;29;20702;-77
2021/05/17 10:42:30;;;;;;;0.52;0.40;;;17.60;99.90;;;;;;4839816;29;20141;-74
2021/05/17 10:47:43;;;;;;;1.25;0.88;;;17.90;99.90;;;;;;4879290;29;20036;-73
2021/05/17 10:50:21;;;;;;;5.25;0.60;;;17.80;99.90;;;;;;4879216;29;20105;-74
2021/05/17 10:52:46;;;;;;;4.13;0.30;;;17.80;99.90;;;;;;4877924;29;20033;-77
2021/05/17 10:55:14;;;;;;;0.88;0.30;;;17.70;99.90;;;;;;4876945;29;20051;-79
2021/05/17 10:58:05;;;;;;;0.57;0.45;;;17.70;99.90;;;;;;4875854;29;20029;-79
2021/05/17 11:00:34;;;;;;;1.65;0.40;;;17.80;99.90;;;;;;4877862;29;20045;-78
2021/05/17 11:03:08;;;;;;;1.42;0.30;;;17.70;99.90;;;;;;4874874;29;20045;-73
2021/05/17 11:05:35;;;;;;;0.50;0.30;;;17.70;99.90;;;;;;4877980;29;20035;-79
2021/05/17 11:08:05;;;;;;;5.78;0.40;;;17.80;99.90;;;;;;4870204;29;20052;-72
2021/05/17 11:10:38;;;;;;;0.45;0.40;;;17.90;99.90;;;;;;4877211;29;20394;-77
2021/05/17 11:13:08;;;;;;;1.65;0.50;;;18.00;99.90;;;;;;4876068;29;20052;-72
2021/05/17 11:15:44;;;;;;;4.00;0.38;;;18.00;99.90;;;;;;4876601;29;20049;-77
2021/05/17 11:18:12;;;;;;;3.78;0.57;;;18.10;99.90;;;;;;4861072;29;20044;-76
2021/05/17 11:23:27;;;;;;;1.63;0.57;;;18.10;99.90;;;;;;4869364;29;20170;-77
2021/05/17 11:25:59;;;;;;;0.38;0.38;;;18.20;99.90;;;;;;4871114;29;20033;-77
2021/05/17 11:28:37;;;;;;;0.25;0.25;;;18.10;99.90;;;;;;4866327;29;20041;-72
2021/05/17 11:31:05;;;;;;;1.30;0.43;;;18.10;99.90;;;;;;4877155;29;20041;-75
2021/05/17 11:33:53;;;;;;;1.25;0.30;;;18.20;99.90;;;;;;4876906;29;20057;-72
2021/05/17 11:36:39;;;;;;;3.75;0.40;;;18.10;99.90;;;;;;4880713;29;20489;-77
2021/05/17 11:48:38;;;;;;;2.47;0.60;;;18.60;99.90;;;;;;4240683;23;20046;-73
2021/05/17 11:51:04;;;;;;;0.52;0.40;;;18.70;99.90;;;;;;4867475;29;20525;-72
2021/05/17 11:53:30;;;;;;;0.30;0.30;;;18.70;99.90;;;;;;4859384;29;20033;-78
2021/05/17 11:55:58;;;;;;;1.13;0.55;;;18.90;99.90;;;;;;4859395;29;20044;-78
2021/05/17 11:58:24;;;;;;;5.70;0.73;;;19.00;99.90;;;;;;4848033;29;20103;-72
2021/05/17 12:01:15;;;;;;;0.38;0.30;;;19.10;99.90;;;;;;4840263;29;20038;-72
2021/05/17 12:03:41;;;;;;;0.40;0.30;;;19.10;99.90;;;;;;4840828;29;20063;-73
2021/05/17 12:06:08;;;;;;;2.83;0.40;;;19.10;99.90;;;;;;4840372;29;20022;-72
2021/05/17 12:08:36;;;;;;;1.95;0.50;;;19.20;99.90;;;;;;4851156;29;20474;-72
2021/05/17 12:11:02;;;;;;;9.98;0.50;;;19.10;99.90;;;;;;4832635;29;20082;-71
2021/05/17 12:13:27;;;;;;;1.65;0.30;;;18.90;99.90;;;;;;4840130;29;20023;-72
2021/05/17 12:15:53;;;;;;;3.63;0.57;;;19.00;99.90;;;;;;4845284;29;20034;-72
2021/05/17 12:18:19;;;;;;;1.13;0.32;;;19.20;99.90;;;;;;4839599;29;20038;-71
2021/05/17 12:20:46;;;;;;;0.68;0.30;;;19.30;99.90;;;;;;4831669;29;20556;-72
2021/05/17 12:23:11;;;;;;;0.93;0.60;;;19.40;99.90;;;;;;4832076;29;20538;-72
2021/05/17 12:25:37;;;;;;;0.20;0.20;;;19.50;99.90;;;;;;4824808;29;20061;-72
2021/05/17 12:28:03;;;;;;;0.30;0.30;;;19.60;99.90;;;;;;4830242;29;20093;-72
2021/05/17 12:30:29;;;;;;;0.45;0.40;;;19.80;99.90;;;;;;4834755;29;20072;-71
2021/05/17 12:33:04;;;;;;;1.35;0.40;;;19.80;99.90;;;;;;4834181;29;20101;-73
2021/05/17 12:35:33;;;;;;;2.28;0.30;;;19.90;99.90;;;;;;4841103;29;20050;-72
2021/05/17 12:38:02;;;;;;;1.38;0.40;;;19.90;99.90;;;;;;4852338;29;20034;-74
2021/05/17 12:40:31;;;;;;;8.18;0.40;;;19.90;99.90;;;;;;4844188;29;20038;-72
2021/05/17 12:43:00;;;;;;;4.43;0.60;;;19.90;99.90;;;;;;4842853;29;20106;-72
2021/05/17 12:45:26;;;;;;;0.75;0.40;;;20.10;99.90;;;;;;4841643;29;20042;-73
2021/05/17 12:47:53;;;;;;;0.43;0.30;;;20.20;99.90;;;;;;4841190;29;20529;-72
2021/05/17 12:50:24;;;;;;;2.05;0.32;;;20.30;99.90;;;;;;4841685;29;20041;-72
2021/05/17 12:53:01;;;;;;;0.38;0.30;;;20.30;99.90;;;;;;4818766;29;20383;-75
2021/05/17 12:55:27;;;;;;;0.30;0.30;;;20.30;99.90;;;;;;4837105;29;20045;-76
2021/05/17 12:57:56;;;;;;;2.60;0.57;;;20.20;99.90;;;;;;4850447;29;20684;-76
2021/05/17 13:00:37;;;;;;;0.60;0.40;;;20.10;99.90;;;;;;4834880;29;20109;-78
2021/05/17 13:03:12;;;;;;;0.30;0.30;;;20.10;99.90;;;;;;4838505;29;20053;-78
2021/05/17 13:05:57;;;;;;;1.38;0.40;;;20.10;99.90;;;;;;4839040;29;20040;-77
2021/05/17 13:08:28;;;;;;;2.05;0.30;;;20.20;99.90;;;;;;4828524;29;20037;-76
2021/05/17 13:11:27;;;;;;;4.60;0.35;;;20.10;99.90;;;;;;4840417;29;20048;-77
2021/05/17 13:14:02;;;;;;;0.82;0.40;;;20.10;99.90;;;;;;4832124;29;20038;-77
2021/05/17 13:16:48;;;;;;;3.83;0.43;;;20.20;99.90;;;;;;4840502;29;20045;-78
2021/05/17 13:31:12;;;;;;;0.32;0.22;;;20.30;99.90;;;;;;4835279;29;20102;-77
2021/05/17 13:33:47;;;;;;;1.63;0.38;;;20.30;99.90;;;;;;4791400;29;20035;-78
2021/05/17 13:36:21;;;;;;;0.35;0.35;;;20.30;99.90;;;;;;4830880;29;20133;-77
2021/05/17 13:38:52;;;;;;;3.90;0.60;;;20.30;99.90;;;;;;4840708;29;20050;-75
2021/05/17 13:41:19;;;;;;;0.45;0.43;;;20.40;99.90;;;;;;4840626;29;20061;-78
2021/05/17 13:43:46;;;;;;;0.77;0.30;;;20.40;99.90;;;;;;4836296;29;20042;-77